CPX215 Details

Departure: Don Miguel Hidalgo y Costilla International Airport (MMGL) at 0900 UTC
Arrival: Benito Juárez International Airport (MMMX) at 1000 UTC
Route: GDL4A GDL UJ14 QET UJ5 TIKEB TIKEB1A
Notes:


Current Weather Information
MMGL 250341Z 26003KT 8SM BKN020 OVC080 19/16 A3020 RMK 60015 8/47/
MMMX 250345Z 06007KT 7SM SCT020 SCT080 BKN200 19/12 A3037 NOSIG RMK 8/463 HZY